Absarokee, Montana
Current Conditions -  °F | °C
As of 12:53 AM on Thursday 27 Nov 2014 (Local Time) from KBIL Reporting Station
Light Fog Light Fog  
Wind Chill: 28°   Ceiling: 15000
Heat Index: 28°   Visibility: 5mi
Dew Point: 27°   Wind: 3mph
Humidity: 96%   Direction: 140°SE
Pressure: 30.06"   Gusts: NA
Location:  45.53°N, 109.43°W
Report Text: KBIL 270753Z 14003KT 5SM BCFG FEW002 OVC150 M02/M03 A3006 RMK AO2 SLP213 BCFG ALQDS T10221028
Loading
Personal Weather Stations






























Interactive Weather Map New forecast layout! Learn more

10-Day Weather Forecast

Advertisements
Track Severe Weather on mobile